Terminal Aerodrome Forecast
Issued by NWS Rapid City, SD

Home | Current Version | Previous Version | Graphics & Text | Print | Product List | Glossary On
Versions: 1 2 3 4 5 6 7 8 9 10 11 12 13 14 15 16 17 18 19
000
FTUS43 KUNR 272300
TAFRAP
TAF
KRAP 272320Z 2800/2824 14009KT P6SM SCT025 OVC040
      TEMPO 2800/2803 TSRA BKN025CB
     FM280300 VRB05KT P6SM BKN025
      TEMPO 2809/2813 4SM BR
     FM281500 33008KT P6SM BKN100=

USA.gov is the U.S. government's official web portal to all federal, state and local government web resources and services.